EDT,Max TemperatureF,Mean TemperatureF,Min TemperatureF,Max Dew PointF,MeanDew PointF,Min DewpointF,Max Humidity, Mean Humidity, Min Humidity, Max Sea Level PressureIn, Mean Sea Level PressureIn, Min Sea Level PressureIn, Max VisibilityMiles, Mean VisibilityMiles, Min VisibilityMiles, Max Wind SpeedMPH, Mean Wind SpeedMPH, Max Gust SpeedMPH,PrecipitationIn, CloudCover, Events, WindDirDegrees
2012-9-1,90,86,81,79,75,72,82,74,65,30.12,30.07,30.02,10,10,9,13,5,16,0.00,3,,82
2012-9-2,89,86,82,78,76,74,85,75,64,30.05,30.01,29.97,10,10,10,13,7,16,0.00,2,,63
2012-9-3,91,86,81,76,75,73,79,69,59,30.05,30.00,29.97,10,10,10,8,4,13,0.00,1,,121
2012-9-4,90,83,75,78,75,73,91,78,64,30.04,30.01,29.96,10,8,1,16,5,25,0.55,3,Rain,139
2012-9-5,91,87,83,76,74,73,79,69,59,30.02,29.99,29.95,10,10,10,10,6,15,0.00,1,,157
2012-9-6,92,88,83,76,74,73,74,67,59,30.05,30.00,29.97,10,10,10,8,5,12,0.00,1,,153
2012-9-7,91,87,82,76,74,73,79,69,59,30.02,29.97,29.94,10,10,10,8,4,14,0.00,1,,133
2012-9-8,92,87,82,75,73,71,74,67,59,30.01,29.96,29.92,10,10,10,9,5,14,0.00,0,,168
2012-9-9,92,86,79,76,74,72,74,65,56,30.02,29.98,29.95,10,10,4,12,6,18,0.00,2,,231
2012-9-10,93,86,79,76,74,70,85,67,49,30.04,30.01,29.97,10,10,10,13,5,20,0.00,1,,283
2012-9-11,92,86,80,79,76,73,88,74,60,30.07,30.02,29.99,10,10,10,24,5,28,T,3,Thunderstorm,10
2012-9-12,91,86,80,78,76,72,85,69,52,30.05,30.00,29.95,10,10,8,24,14,31,0.08,3,Rain-Thunderstorm,59
2012-9-13,90,84,78,79,76,73,94,79,64,30.03,29.99,29.94,10,9,2,20,8,30,0.48,5,Rain-Thunderstorm,82
2012-9-14,90,84,78,81,77,75,97,81,64,30.02,29.98,29.94,10,10,6,14,8,20,0.17,3,Rain-Thunderstorm,71
2012-9-15,90,84,77,78,76,75,91,80,68,30.03,29.99,29.96,10,9,3,15,7,23,0.13,3,Rain,101
2012-9-16,86,81,76,77,75,71,85,77,69,30.02,29.99,29.95,10,9,2,12,6,20,0.08,3,Rain,114
2012-9-17,89,85,80,79,76,73,85,74,63,30.01,29.97,29.93,10,10,6,16,6,22,T,3,Rain-Thunderstorm,145
2012-9-18,92,86,80,79,77,75,94,79,64,30.02,29.97,29.93,10,10,2,16,6,23,0.12,2,Rain-Thunderstorm,226
2012-9-19,90,85,79,77,76,74,91,77,63,30.05,30.00,29.93,10,10,10,13,5,20,T,1,,207
2012-9-20,92,86,80,78,76,73,88,74,60,30.01,29.97,29.92,10,10,10,16,7,21,0.10,1,Rain-Thunderstorm,64
2012-9-21,86,80,74,79,75,72,100,83,65,30.00,29.95,29.89,10,9,1,20,10,33,1.02,3,Rain-Thunderstorm,72
2012-9-22,87,81,74,79,76,73,97,81,65,30.02,29.96,29.91,10,8,0,18,5,25,1.26,4,Fog-Rain-Thunderstorm,99
2012-9-23,88,84,79,81,77,75,97,83,68,30.06,30.02,29.99,10,9,1,13,4,16,0.10,1,Rain,28
2012-9-24,84,82,79,78,75,67,91,75,58,30.06,30.02,29.97,10,10,8,13,7,18,0.06,2,Rain,51
2012-9-25,85,82,79,79,76,72,85,80,74,30.06,30.02,29.98,10,10,7,14,7,16,0.03,1,Rain,49
2012-9-26,90,82,73,79,77,72,94,81,68,30.08,30.04,30.00,10,10,5,18,6,23,0.12,2,Rain-Thunderstorm,67
2012-9-27,87,84,81,80,78,73,94,82,70,30.08,30.03,29.99,10,10,10,12,6,17,0.02,2,Rain-Thunderstorm,52
2012-9-28,89,83,76,80,76,72,100,80,59,30.02,29.98,29.92,10,10,2,15,6,22,0.12,2,Rain-Thunderstorm,63
2012-9-29,89,84,78,79,76,73,100,84,68,29.98,29.92,29.86,10,10,10,12,5,17,0.01,1,,97
2012-9-30,88,83,77,79,76,72,91,77,63,29.91,29.86,29.80,10,9,1,17,6,28,0.32,3,Rain,137